sensor_id;sensor_type;location;lat;lon;timestamp;temperature;humidity
5304;DHT22;2674;49.722;10.892;2023-07-13T00:00:06;21.30;1.00
5304;DHT22;2674;49.722;10.892;2023-07-13T00:02:35;21.30;1.00
5304;DHT22;2674;49.722;10.892;2023-07-13T00:05:01;21.30;1.00
5304;DHT22;2674;49.722;10.892;2023-07-13T00:07:27;21.20;1.00
5304;DHT22;2674;49.722;10.892;2023-07-13T00:09:53;21.20;1.00
5304;DHT22;2674;49.722;10.892;2023-07-13T00:12:34;21.10;1.00
5304;DHT22;2674;49.722;10.892;2023-07-13T00:15:09;21.10;1.00
5304;DHT22;2674;49.722;10.892;2023-07-13T00:17:35;21.10;1.00
5304;DHT22;2674;49.722;10.892;2023-07-13T00:20:01;21.00;1.00
5304;DHT22;2674;49.722;10.892;2023-07-13T00:22:27;21.00;1.00
5304;DHT22;2674;49.722;10.892;2023-07-13T00:24:53;21.00;1.00
5304;DHT22;2674;49.722;10.892;2023-07-13T00:27:22;20.90;1.00
5304;DHT22;2674;49.722;10.892;2023-07-13T00:29:48;20.80;1.00
5304;DHT22;2674;49.722;10.892;2023-07-13T00:32:14;20.70;1.00
5304;DHT22;2674;49.722;10.892;2023-07-13T00:34:40;20.70;1.00
5304;DHT22;2674;49.722;10.892;2023-07-13T00:37:07;20.70;1.00
5304;DHT22;2674;49.722;10.892;2023-07-13T00:39:34;20.60;1.00
5304;DHT22;2674;49.722;10.892;2023-07-13T00:42:01;20.50;1.00
5304;DHT22;2674;49.722;10.892;2023-07-13T00:44:27;20.50;1.00
5304;DHT22;2674;49.722;10.892;2023-07-13T00:46:53;20.50;1.00
5304;DHT22;2674;49.722;10.892;2023-07-13T00:49:23;20.40;1.00
5304;DHT22;2674;49.722;10.892;2023-07-13T00:51:53;20.30;1.00
5304;DHT22;2674;49.722;10.892;2023-07-13T00:54:41;20.30;1.00
5304;DHT22;2674;49.722;10.892;2023-07-13T00:57:13;20.20;1.00
5304;DHT22;2674;49.722;10.892;2023-07-13T00:59:59;20.10;1.00
5304;DHT22;2674;49.722;10.892;2023-07-13T01:02:26;20.10;1.00
5304;DHT22;2674;49.722;10.892;2023-07-13T01:04:53;20.00;1.00
5304;DHT22;2674;49.722;10.892;2023-07-13T01:07:19;20.00;1.00
5304;DHT22;2674;49.722;10.892;2023-07-13T01:09:45;19.90;1.00
5304;DHT22;2674;49.722;10.892;2023-07-13T01:12:11;19.90;1.00
5304;DHT22;2674;49.722;10.892;2023-07-13T01:14:39;19.80;1.00
5304;DHT22;2674;49.722;10.892;2023-07-13T01:17:09;19.70;1.00
5304;DHT22;2674;49.722;10.892;2023-07-13T01:19:44;19.70;1.00
5304;DHT22;2674;49.722;10.892;2023-07-13T01:22:16;19.70;1.00
5304;DHT22;2674;49.722;10.892;2023-07-13T01:24:44;19.60;1.00
5304;DHT22;2674;49.722;10.892;2023-07-13T01:27:13;19.50;1.00
5304;DHT22;2674;49.722;10.892;2023-07-13T01:29:40;19.50;1.00
5304;DHT22;2674;49.722;10.892;2023-07-13T01:32:11;19.50;1.00
5304;DHT22;2674;49.722;10.892;2023-07-13T01:34:37;19.40;1.00
5304;DHT22;2674;49.722;10.892;2023-07-13T01:37:08;19.30;1.00
5304;DHT22;2674;49.722;10.892;2023-07-13T01:39:34;19.30;1.00
5304;DHT22;2674;49.722;10.892;2023-07-13T01:42:00;19.30;1.00
5304;DHT22;2674;49.722;10.892;2023-07-13T01:44:26;19.20;1.00
5304;DHT22;2674;49.722;10.892;2023-07-13T01:46:52;19.20;1.00
5304;DHT22;2674;49.722;10.892;2023-07-13T01:49:18;19.20;1.00
5304;DHT22;2674;49.722;10.892;2023-07-13T01:51:44;19.10;1.00
5304;DHT22;2674;49.722;10.892;2023-07-13T01:54:10;19.10;1.00
5304;DHT22;2674;49.722;10.892;2023-07-13T01:56:36;19.00;1.00
5304;DHT22;2674;49.722;10.892;2023-07-13T01:59:02;18.90;1.00
5304;DHT22;2674;49.722;10.892;2023-07-13T02:01:28;18.90;1.00
5304;DHT22;2674;49.722;10.892;2023-07-13T02:03:54;18.90;1.00
5304;DHT22;2674;49.722;10.892;2023-07-13T02:06:20;18.80;1.00
5304;DHT22;2674;49.722;10.892;2023-07-13T02:08:45;18.80;1.00
5304;DHT22;2674;49.722;10.892;2023-07-13T02:11:12;18.70;1.00
5304;DHT22;2674;49.722;10.892;2023-07-13T02:13:37;18.60;1.00
5304;DHT22;2674;49.722;10.892;2023-07-13T02:16:03;18.50;1.00
5304;DHT22;2674;49.722;10.892;2023-07-13T02:18:29;18.50;1.00
5304;DHT22;2674;49.722;10.892;2023-07-13T02:20:55;18.50;1.00
5304;DHT22;2674;49.722;10.892;2023-07-13T02:23:21;18.40;1.00
5304;DHT22;2674;49.722;10.892;2023-07-13T02:25:47;18.30;1.00
5304;DHT22;2674;49.722;10.892;2023-07-13T02:28:12;18.30;1.00
5304;DHT22;2674;49.722;10.892;2023-07-13T02:30:38;18.30;1.00
5304;DHT22;2674;49.722;10.892;2023-07-13T02:33:04;18.20;1.00
5304;DHT22;2674;49.722;10.892;2023-07-13T02:35:30;18.20;1.00
5304;DHT22;2674;49.722;10.892;2023-07-13T02:37:56;18.20;1.00
5304;DHT22;2674;49.722;10.892;2023-07-13T02:40:22;18.20;1.00
5304;DHT22;2674;49.722;10.892;2023-07-13T02:42:48;18.20;1.00
5304;DHT22;2674;49.722;10.892;2023-07-13T02:45:14;18.20;1.00
5304;DHT22;2674;49.722;10.892;2023-07-13T02:47:41;18.10;1.00
5304;DHT22;2674;49.722;10.892;2023-07-13T02:50:08;18.10;1.00
5304;DHT22;2674;49.722;10.892;2023-07-13T02:52:34;18.10;1.00
5304;DHT22;2674;49.722;10.892;2023-07-13T02:55:00;18.10;1.00
5304;DHT22;2674;49.722;10.892;2023-07-13T02:57:26;18.00;1.00
5304;DHT22;2674;49.722;10.892;2023-07-13T02:59:53;18.00;1.00
5304;DHT22;2674;49.722;10.892;2023-07-13T03:02:19;18.00;1.00
5304;DHT22;2674;49.722;10.892;2023-07-13T03:04:45;18.00;1.00
5304;DHT22;2674;49.722;10.892;2023-07-13T03:07:11;18.00;1.00
5304;DHT22;2674;49.722;10.892;2023-07-13T03:09:36;17.90;1.00
5304;DHT22;2674;49.722;10.892;2023-07-13T03:12:02;17.80;1.00
5304;DHT22;2674;49.722;10.892;2023-07-13T03:34:50;17.30;1.00
5304;DHT22;2674;49.722;10.892;2023-07-13T03:37:16;17.20;1.00
5304;DHT22;2674;49.722;10.892;2023-07-13T03:39:42;17.10;1.00
5304;DHT22;2674;49.722;10.892;2023-07-13T03:42:08;17.10;1.00
5304;DHT22;2674;49.722;10.892;2023-07-13T03:44:35;17.10;1.00
5304;DHT22;2674;49.722;10.892;2023-07-13T03:47:00;17.10;1.00
5304;DHT22;2674;49.722;10.892;2023-07-13T03:49:26;17.00;1.00
5304;DHT22;2674;49.722;10.892;2023-07-13T03:51:52;17.00;1.00
5304;DHT22;2674;49.722;10.892;2023-07-13T03:54:18;17.00;1.00
5304;DHT22;2674;49.722;10.892;2023-07-13T03:56:44;17.00;1.00
5304;DHT22;2674;49.722;10.892;2023-07-13T03:59:10;17.00;1.00
5304;DHT22;2674;49.722;10.892;2023-07-13T04:01:36;17.00;1.00
5304;DHT22;2674;49.722;10.892;2023-07-13T04:04:02;17.00;1.00
5304;DHT22;2674;49.722;10.892;2023-07-13T04:06:29;16.90;1.00
5304;DHT22;2674;49.722;10.892;2023-07-13T04:08:58;16.90;1.00
5304;DHT22;2674;49.722;10.892;2023-07-13T04:11:27;16.90;1.00
5304;DHT22;2674;49.722;10.892;2023-07-13T04:13:54;17.00;1.00
5304;DHT22;2674;49.722;10.892;2023-07-13T04:16:20;16.90;1.00
5304;DHT22;2674;49.722;10.892;2023-07-13T04:18:47;17.00;1.00
5304;DHT22;2674;49.722;10.892;2023-07-13T04:21:15;17.00;1.00
5304;DHT22;2674;49.722;10.892;2023-07-13T04:23:42;16.80;1.00
5304;DHT22;2674;49.722;10.892;2023-07-13T04:26:08;17.00;1.00
5304;DHT22;2674;49.722;10.892;2023-07-13T04:28:34;17.10;1.00
5304;DHT22;2674;49.722;10.892;2023-07-13T04:31:01;17.10;1.00
5304;DHT22;2674;49.722;10.892;2023-07-13T04:33:27;17.30;1.00
5304;DHT22;2674;49.722;10.892;2023-07-13T04:35:54;17.40;1.00
5304;DHT22;2674;49.722;10.892;2023-07-13T04:38:24;17.70;1.00
5304;DHT22;2674;49.722;10.892;2023-07-13T04:40:51;17.90;1.00
5304;DHT22;2674;49.722;10.892;2023-07-13T04:43:20;18.20;1.00
5304;DHT22;2674;49.722;10.892;2023-07-13T04:45:50;18.40;1.00
5304;DHT22;2674;49.722;10.892;2023-07-13T04:48:37;18.60;1.00
5304;DHT22;2674;49.722;10.892;2023-07-13T04:51:07;19.00;1.00
5304;DHT22;2674;49.722;10.892;2023-07-13T04:53:33;19.40;1.00
5304;DHT22;2674;49.722;10.892;2023-07-13T04:56:10;19.80;1.00
5304;DHT22;2674;49.722;10.892;2023-07-13T04:58:45;20.30;1.00
5304;DHT22;2674;49.722;10.892;2023-07-13T05:01:15;20.50;1.00
5304;DHT22;2674;49.722;10.892;2023-07-13T05:03:54;21.10;1.00
5304;DHT22;2674;49.722;10.892;2023-07-13T05:09:37;21.20;1.00
5304;DHT22;2674;49.722;10.892;2023-07-13T05:12:30;21.60;1.00
5304;DHT22;2674;49.722;10.892;2023-07-13T05:15:06;21.70;1.00
5304;DHT22;2674;49.722;10.892;2023-07-13T05:17:53;21.60;1.00
5304;DHT22;2674;49.722;10.892;2023-07-13T05:20:29;21.70;1.00
5304;DHT22;2674;49.722;10.892;2023-07-13T05:29:31;21.80;1.00
5304;DHT22;2674;49.722;10.892;2023-07-13T05:32:29;21.60;1.00
5304;DHT22;2674;49.722;10.892;2023-07-13T05:35:02;21.30;1.00
5304;DHT22;2674;49.722;10.892;2023-07-13T05:37:35;21.30;1.00
5304;DHT22;2674;49.722;10.892;2023-07-13T05:43:31;21.00;1.00
5304;DHT22;2674;49.722;10.892;2023-07-13T05:46:10;20.90;1.00
5304;DHT22;2674;49.722;10.892;2023-07-13T05:49:10;20.70;1.00
5304;DHT22;2674;49.722;10.892;2023-07-13T05:55:23;20.70;1.00
5304;DHT22;2674;49.722;10.892;2023-07-13T05:58:19;20.60;1.00
5304;DHT22;2674;49.722;10.892;2023-07-13T06:04:16;21.00;1.00
5304;DHT22;2674;49.722;10.892;2023-07-13T06:07:00;20.90;1.00
5304;DHT22;2674;49.722;10.892;2023-07-13T06:09:28;20.90;1.00
5304;DHT22;2674;49.722;10.892;2023-07-13T06:11:56;21.10;1.00
5304;DHT22;2674;49.722;10.892;2023-07-13T06:14:41;21.20;1.00
5304;DHT22;2674;49.722;10.892;2023-07-13T06:17:50;21.40;1.00
5304;DHT22;2674;49.722;10.892;2023-07-13T06:27:00;21.90;1.00
5304;DHT22;2674;49.722;10.892;2023-07-13T06:35:16;22.00;1.00
5304;DHT22;2674;49.722;10.892;2023-07-13T06:37:44;21.70;1.00
5304;DHT22;2674;49.722;10.892;2023-07-13T06:40:29;21.30;1.00
5304;DHT22;2674;49.722;10.892;2023-07-13T06:43:02;21.30;1.00
5304;DHT22;2674;49.722;10.892;2023-07-13T06:45:28;21.30;1.00
5304;DHT22;2674;49.722;10.892;2023-07-13T06:48:09;21.40;1.00
5304;DHT22;2674;49.722;10.892;2023-07-13T06:50:42;21.40;1.00
5304;DHT22;2674;49.722;10.892;2023-07-13T06:53:50;21.40;1.00
5304;DHT22;2674;49.722;10.892;2023-07-13T06:59:55;21.20;1.00
5304;DHT22;2674;49.722;10.892;2023-07-13T07:02:33;21.10;1.00
5304;DHT22;2674;49.722;10.892;2023-07-13T07:05:09;21.10;1.00
5304;DHT22;2674;49.722;10.892;2023-07-13T07:07:41;21.30;1.00
5304;DHT22;2674;49.722;10.892;2023-07-13T07:10:10;21.40;1.00
5304;DHT22;2674;49.722;10.892;2023-07-13T07:12:53;21.70;1.00
5304;DHT22;2674;49.722;10.892;2023-07-13T07:15:21;21.70;1.00
5304;DHT22;2674;49.722;10.892;2023-07-13T07:17:47;21.70;1.00
5304;DHT22;2674;49.722;10.892;2023-07-13T07:20:13;21.60;1.00
5304;DHT22;2674;49.722;10.892;2023-07-13T07:22:44;21.70;1.00
5304;DHT22;2674;49.722;10.892;2023-07-13T07:25:39;21.50;1.00
5304;DHT22;2674;49.722;10.892;2023-07-13T07:28:08;21.40;1.00
5304;DHT22;2674;49.722;10.892;2023-07-13T07:30:34;21.40;1.00
5304;DHT22;2674;49.722;10.892;2023-07-13T07:33:00;21.50;1.00
5304;DHT22;2674;49.722;10.892;2023-07-13T07:35:27;21.60;1.00
5304;DHT22;2674;49.722;10.892;2023-07-13T07:37:52;21.80;1.00
5304;DHT22;2674;49.722;10.892;2023-07-13T07:40:19;21.80;1.00
5304;DHT22;2674;49.722;10.892;2023-07-13T07:42:48;21.90;1.00
5304;DHT22;2674;49.722;10.892;2023-07-13T07:45:18;22.00;1.00
5304;DHT22;2674;49.722;10.892;2023-07-13T07:47:44;22.00;1.00
5304;DHT22;2674;49.722;10.892;2023-07-13T07:50:13;22.00;1.00
5304;DHT22;2674;49.722;10.892;2023-07-13T07:55:52;22.40;1.00
5304;DHT22;2674;49.722;10.892;2023-07-13T07:58:18;22.40;1.00
5304;DHT22;2674;49.722;10.892;2023-07-13T08:01:14;22.50;1.00
5304;DHT22;2674;49.722;10.892;2023-07-13T08:03:49;22.60;1.00
5304;DHT22;2674;49.722;10.892;2023-07-13T08:06:16;22.50;1.00
5304;DHT22;2674;49.722;10.892;2023-07-13T08:08:46;22.60;1.00
5304;DHT22;2674;49.722;10.892;2023-07-13T08:11:20;22.80;1.00
5304;DHT22;2674;49.722;10.892;2023-07-13T08:13:56;22.70;1.00
5304;DHT22;2674;49.722;10.892;2023-07-13T08:16:23;22.50;1.00
5304;DHT22;2674;49.722;10.892;2023-07-13T08:18:50;22.70;1.00
5304;DHT22;2674;49.722;10.892;2023-07-13T08:21:16;22.90;1.00
5304;DHT22;2674;49.722;10.892;2023-07-13T08:24:12;22.80;1.00
5304;DHT22;2674;49.722;10.892;2023-07-13T08:26:42;23.10;1.00
5304;DHT22;2674;49.722;10.892;2023-07-13T08:29:24;23.20;1.00
5304;DHT22;2674;49.722;10.892;2023-07-13T08:31:50;23.20;1.00
5304;DHT22;2674;49.722;10.892;2023-07-13T08:34:16;23.30;1.00
5304;DHT22;2674;49.722;10.892;2023-07-13T08:36:42;23.30;1.00
5304;DHT22;2674;49.722;10.892;2023-07-13T08:39:08;23.40;1.00
5304;DHT22;2674;49.722;10.892;2023-07-13T08:41:34;23.60;1.00
5304;DHT22;2674;49.722;10.892;2023-07-13T08:44:03;23.80;1.00
5304;DHT22;2674;49.722;10.892;2023-07-13T08:46:40;23.80;1.00
5304;DHT22;2674;49.722;10.892;2023-07-13T08:49:15;23.90;1.00
5304;DHT22;2674;49.722;10.892;2023-07-13T08:51:43;24.10;1.00
5304;DHT22;2674;49.722;10.892;2023-07-13T08:54:20;24.10;1.00
5304;DHT22;2674;49.722;10.892;2023-07-13T08:56:50;24.10;1.00
5304;DHT22;2674;49.722;10.892;2023-07-13T08:59:21;24.20;1.00
5304;DHT22;2674;49.722;10.892;2023-07-13T09:04:45;24.30;1.00
5304;DHT22;2674;49.722;10.892;2023-07-13T09:07:40;24.40;1.00
5304;DHT22;2674;49.722;10.892;2023-07-13T09:10:13;24.40;1.00
5304;DHT22;2674;49.722;10.892;2023-07-13T09:15:46;24.50;1.00
5304;DHT22;2674;49.722;10.892;2023-07-13T09:21:00;24.10;1.00
5304;DHT22;2674;49.722;10.892;2023-07-13T09:23:29;24.10;1.00
5304;DHT22;2674;49.722;10.892;2023-07-13T09:28:42;24.20;1.00
5304;DHT22;2674;49.722;10.892;2023-07-13T09:33:35;24.60;1.00
5304;DHT22;2674;49.722;10.892;2023-07-13T09:36:03;24.60;1.00
5304;DHT22;2674;49.722;10.892;2023-07-13T09:38:39;24.60;1.00
5304;DHT22;2674;49.722;10.892;2023-07-13T09:44:12;24.50;1.00
5304;DHT22;2674;49.722;10.892;2023-07-13T09:46:43;24.60;1.00
5304;DHT22;2674;49.722;10.892;2023-07-13T09:49:10;24.80;1.00
5304;DHT22;2674;49.722;10.892;2023-07-13T09:51:37;25.10;1.00
5304;DHT22;2674;49.722;10.892;2023-07-13T09:54:04;25.10;1.00
5304;DHT22;2674;49.722;10.892;2023-07-13T09:56:30;25.10;1.00
5304;DHT22;2674;49.722;10.892;2023-07-13T09:58:57;25.10;1.00
5304;DHT22;2674;49.722;10.892;2023-07-13T10:01:37;25.10;1.00
5304;DHT22;2674;49.722;10.892;2023-07-13T10:04:13;24.90;1.00
5304;DHT22;2674;49.722;10.892;2023-07-13T10:06:40;25.10;1.00
5304;DHT22;2674;49.722;10.892;2023-07-13T10:09:09;25.20;1.00
5304;DHT22;2674;49.722;10.892;2023-07-13T10:11:39;25.30;1.00
5304;DHT22;2674;49.722;10.892;2023-07-13T10:14:15;25.30;1.00
5304;DHT22;2674;49.722;10.892;2023-07-13T10:16:43;25.40;1.00
5304;DHT22;2674;49.722;10.892;2023-07-13T10:19:25;25.40;1.00
5304;DHT22;2674;49.722;10.892;2023-07-13T10:22:58;25.70;1.00
5304;DHT22;2674;49.722;10.892;2023-07-13T10:25:15;25.60;1.00
5304;DHT22;2674;49.722;10.892;2023-07-13T10:27:43;25.40;1.00
5304;DHT22;2674;49.722;10.892;2023-07-13T10:32:35;25.40;1.00
5304;DHT22;2674;49.722;10.892;2023-07-13T10:35:01;25.20;1.00
5304;DHT22;2674;49.722;10.892;2023-07-13T10:37:40;24.90;1.00
5304;DHT22;2674;49.722;10.892;2023-07-13T10:40:17;24.90;1.00
5304;DHT22;2674;49.722;10.892;2023-07-13T10:42:47;25.00;1.00
5304;DHT22;2674;49.722;10.892;2023-07-13T10:45:17;25.30;1.00
5304;DHT22;2674;49.722;10.892;2023-07-13T10:47:45;25.40;1.00
5304;DHT22;2674;49.722;10.892;2023-07-13T10:50:30;25.30;1.00
5304;DHT22;2674;49.722;10.892;2023-07-13T10:53:54;25.10;1.00
5304;DHT22;2674;49.722;10.892;2023-07-13T10:58:43;24.50;1.00
5304;DHT22;2674;49.722;10.892;2023-07-13T11:01:14;24.40;1.00
5304;DHT22;2674;49.722;10.892;2023-07-13T11:06:15;24.50;1.00
5304;DHT22;2674;49.722;10.892;2023-07-13T11:11:34;24.90;1.00
5304;DHT22;2674;49.722;10.892;2023-07-13T11:14:02;25.10;1.00
5304;DHT22;2674;49.722;10.892;2023-07-13T11:16:59;25.10;1.00
5304;DHT22;2674;49.722;10.892;2023-07-13T11:19:51;25.20;1.00
5304;DHT22;2674;49.722;10.892;2023-07-13T11:22:23;25.30;1.00
5304;DHT22;2674;49.722;10.892;2023-07-13T11:24:51;25.50;1.00
5304;DHT22;2674;49.722;10.892;2023-07-13T11:27:46;25.60;1.00
5304;DHT22;2674;49.722;10.892;2023-07-13T11:38:37;25.50;1.00
5304;DHT22;2674;49.722;10.892;2023-07-13T11:41:12;25.60;1.00
5304;DHT22;2674;49.722;10.892;2023-07-13T11:43:40;25.50;1.00
5304;DHT22;2674;49.722;10.892;2023-07-13T11:46:14;25.40;1.00
5304;DHT22;2674;49.722;10.892;2023-07-13T11:48:40;25.30;1.00
5304;DHT22;2674;49.722;10.892;2023-07-13T11:51:31;25.30;1.00
5304;DHT22;2674;49.722;10.892;2023-07-13T11:54:06;25.30;1.00
5304;DHT22;2674;49.722;10.892;2023-07-13T11:56:37;25.20;1.00
5304;DHT22;2674;49.722;10.892;2023-07-13T11:59:06;25.20;1.00
5304;DHT22;2674;49.722;10.892;2023-07-13T12:01:32;25.30;1.00
5304;DHT22;2674;49.722;10.892;2023-07-13T12:04:04;25.40;1.00
5304;DHT22;2674;49.722;10.892;2023-07-13T12:06:36;25.40;1.00
5304;DHT22;2674;49.722;10.892;2023-07-13T12:09:14;25.50;1.00
5304;DHT22;2674;49.722;10.892;2023-07-13T12:11:45;25.40;1.00
5304;DHT22;2674;49.722;10.892;2023-07-13T12:14:18;25.50;1.00
5304;DHT22;2674;49.722;10.892;2023-07-13T12:16:46;25.90;1.00
5304;DHT22;2674;49.722;10.892;2023-07-13T12:19:20;26.20;1.00
5304;DHT22;2674;49.722;10.892;2023-07-13T12:21:49;26.50;1.00
5304;DHT22;2674;49.722;10.892;2023-07-13T12:24:20;26.60;1.00
5304;DHT22;2674;49.722;10.892;2023-07-13T12:27:13;26.50;1.00
5304;DHT22;2674;49.722;10.892;2023-07-13T12:30:05;26.20;1.00
5304;DHT22;2674;49.722;10.892;2023-07-13T12:32:32;26.40;1.00
5304;DHT22;2674;49.722;10.892;2023-07-13T12:35:14;26.60;1.00
5304;DHT22;2674;49.722;10.892;2023-07-13T12:37:45;26.60;1.00
5304;DHT22;2674;49.722;10.892;2023-07-13T12:40:20;26.60;1.00
5304;DHT22;2674;49.722;10.892;2023-07-13T12:42:49;26.70;1.00
5304;DHT22;2674;49.722;10.892;2023-07-13T12:45:24;26.60;1.00
5304;DHT22;2674;49.722;10.892;2023-07-13T12:47:55;26.50;1.00
5304;DHT22;2674;49.722;10.892;2023-07-13T12:50:23;26.50;1.00
5304;DHT22;2674;49.722;10.892;2023-07-13T12:53:01;26.30;1.00
5304;DHT22;2674;49.722;10.892;2023-07-13T12:55:44;26.20;1.00
5304;DHT22;2674;49.722;10.892;2023-07-13T12:58:28;26.30;1.00
5304;DHT22;2674;49.722;10.892;2023-07-13T13:00:56;26.20;1.00
5304;DHT22;2674;49.722;10.892;2023-07-13T13:03:33;26.30;1.00
5304;DHT22;2674;49.722;10.892;2023-07-13T13:06:00;26.20;1.00
5304;DHT22;2674;49.722;10.892;2023-07-13T13:08:34;26.40;1.00
5304;DHT22;2674;49.722;10.892;2023-07-13T13:11:01;26.50;1.00
5304;DHT22;2674;49.722;10.892;2023-07-13T13:13:27;26.80;1.00
5304;DHT22;2674;49.722;10.892;2023-07-13T13:15:53;26.80;1.00
5304;DHT22;2674;49.722;10.892;2023-07-13T13:18:21;26.80;1.00
5304;DHT22;2674;49.722;10.892;2023-07-13T13:20:51;26.90;1.00
5304;DHT22;2674;49.722;10.892;2023-07-13T13:23:19;26.70;1.00
5304;DHT22;2674;49.722;10.892;2023-07-13T13:25:48;26.60;1.00
5304;DHT22;2674;49.722;10.892;2023-07-13T13:28:16;26.60;1.00
5304;DHT22;2674;49.722;10.892;2023-07-13T13:30:43;26.70;1.00
5304;DHT22;2674;49.722;10.892;2023-07-13T13:33:14;26.70;1.00
5304;DHT22;2674;49.722;10.892;2023-07-13T13:35:40;26.80;1.00
5304;DHT22;2674;49.722;10.892;2023-07-13T13:38:13;26.70;1.00
5304;DHT22;2674;49.722;10.892;2023-07-13T13:40:44;26.60;1.00
5304;DHT22;2674;49.722;10.892;2023-07-13T13:43:26;26.80;1.00
5304;DHT22;2674;49.722;10.892;2023-07-13T13:45:55;26.90;1.00
5304;DHT22;2674;49.722;10.892;2023-07-13T13:48:34;27.00;1.00
5304;DHT22;2674;49.722;10.892;2023-07-13T13:51:11;26.90;1.00
5304;DHT22;2674;49.722;10.892;2023-07-13T13:53:38;26.60;1.00
5304;DHT22;2674;49.722;10.892;2023-07-13T13:56:05;26.50;1.00
5304;DHT22;2674;49.722;10.892;2023-07-13T13:58:30;26.40;1.00
5304;DHT22;2674;49.722;10.892;2023-07-13T14:00:56;26.40;1.00
5304;DHT22;2674;49.722;10.892;2023-07-13T14:03:24;26.40;1.00
5304;DHT22;2674;49.722;10.892;2023-07-13T14:05:49;26.70;1.00
5304;DHT22;2674;49.722;10.892;2023-07-13T14:08:19;26.70;1.00
5304;DHT22;2674;49.722;10.892;2023-07-13T14:10:56;26.60;1.00
5304;DHT22;2674;49.722;10.892;2023-07-13T14:13:28;26.50;1.00
5304;DHT22;2674;49.722;10.892;2023-07-13T14:15:57;26.50;1.00
5304;DHT22;2674;49.722;10.892;2023-07-13T14:18:24;26.50;1.00
5304;DHT22;2674;49.722;10.892;2023-07-13T14:20:50;26.60;1.00
5304;DHT22;2674;49.722;10.892;2023-07-13T14:23:18;26.90;1.00
5304;DHT22;2674;49.722;10.892;2023-07-13T14:25:44;27.10;1.00
5304;DHT22;2674;49.722;10.892;2023-07-13T14:28:19;27.10;1.00
5304;DHT22;2674;49.722;10.892;2023-07-13T14:30:46;27.00;1.00
5304;DHT22;2674;49.722;10.892;2023-07-13T14:33:13;26.90;1.00
5304;DHT22;2674;49.722;10.892;2023-07-13T14:35:39;26.80;1.00
5304;DHT22;2674;49.722;10.892;2023-07-13T14:38:05;26.70;1.00
5304;DHT22;2674;49.722;10.892;2023-07-13T14:40:33;26.70;1.00
5304;DHT22;2674;49.722;10.892;2023-07-13T14:42:59;26.70;1.00
5304;DHT22;2674;49.722;10.892;2023-07-13T14:45:25;26.90;1.00
5304;DHT22;2674;49.722;10.892;2023-07-13T14:47:51;27.10;1.00
5304;DHT22;2674;49.722;10.892;2023-07-13T14:50:26;27.20;1.00
5304;DHT22;2674;49.722;10.892;2023-07-13T14:52:54;27.20;1.00
5304;DHT22;2674;49.722;10.892;2023-07-13T14:55:20;27.00;1.00
5304;DHT22;2674;49.722;10.892;2023-07-13T14:57:48;26.70;1.00
5304;DHT22;2674;49.722;10.892;2023-07-13T15:00:19;26.40;1.00
5304;DHT22;2674;49.722;10.892;2023-07-13T15:02:54;26.20;1.00
5304;DHT22;2674;49.722;10.892;2023-07-13T15:05:26;26.10;1.00
5304;DHT22;2674;49.722;10.892;2023-07-13T15:07:57;26.00;1.00
5304;DHT22;2674;49.722;10.892;2023-07-13T15:10:26;26.00;1.00
5304;DHT22;2674;49.722;10.892;2023-07-13T15:12:52;26.00;1.00
5304;DHT22;2674;49.722;10.892;2023-07-13T15:15:19;26.00;1.00
5304;DHT22;2674;49.722;10.892;2023-07-13T15:17:46;25.80;1.00
5304;DHT22;2674;49.722;10.892;2023-07-13T15:20:26;25.80;1.00
5304;DHT22;2674;49.722;10.892;2023-07-13T15:22:53;25.80;1.00
5304;DHT22;2674;49.722;10.892;2023-07-13T15:25:22;25.70;1.00
5304;DHT22;2674;49.722;10.892;2023-07-13T15:27:49;25.60;1.00
5304;DHT22;2674;49.722;10.892;2023-07-13T15:30:15;25.60;1.00
5304;DHT22;2674;49.722;10.892;2023-07-13T15:32:45;25.70;1.00
5304;DHT22;2674;49.722;10.892;2023-07-13T15:35:16;25.80;1.00
5304;DHT22;2674;49.722;10.892;2023-07-13T15:37:42;25.60;1.00
5304;DHT22;2674;49.722;10.892;2023-07-13T15:40:12;25.70;1.00
5304;DHT22;2674;49.722;10.892;2023-07-13T15:42:42;25.90;1.00
5304;DHT22;2674;49.722;10.892;2023-07-13T15:45:26;26.20;1.00
5304;DHT22;2674;49.722;10.892;2023-07-13T15:47:53;26.60;1.00
5304;DHT22;2674;49.722;10.892;2023-07-13T15:50:22;26.60;1.00
5304;DHT22;2674;49.722;10.892;2023-07-13T15:52:52;26.60;1.00
5304;DHT22;2674;49.722;10.892;2023-07-13T15:55:19;26.40;1.00
5304;DHT22;2674;49.722;10.892;2023-07-13T15:57:48;26.40;1.00
5304;DHT22;2674;49.722;10.892;2023-07-13T16:00:25;26.40;1.00
5304;DHT22;2674;49.722;10.892;2023-07-13T16:02:52;26.40;1.00
5304;DHT22;2674;49.722;10.892;2023-07-13T16:05:20;26.30;1.00
5304;DHT22;2674;49.722;10.892;2023-07-13T16:07:49;26.20;1.00
5304;DHT22;2674;49.722;10.892;2023-07-13T16:10:22;26.00;1.00
5304;DHT22;2674;49.722;10.892;2023-07-13T16:12:48;25.90;1.00
5304;DHT22;2674;49.722;10.892;2023-07-13T16:15:16;25.80;1.00
5304;DHT22;2674;49.722;10.892;2023-07-13T16:17:45;25.60;1.00
5304;DHT22;2674;49.722;10.892;2023-07-13T16:20:12;25.50;1.00
5304;DHT22;2674;49.722;10.892;2023-07-13T16:22:45;25.50;1.00
5304;DHT22;2674;49.722;10.892;2023-07-13T16:25:20;25.60;1.00
5304;DHT22;2674;49.722;10.892;2023-07-13T16:27:48;25.40;1.00
5304;DHT22;2674;49.722;10.892;2023-07-13T16:30:16;25.40;1.00
5304;DHT22;2674;49.722;10.892;2023-07-13T16:32:44;25.40;1.00
5304;DHT22;2674;49.722;10.892;2023-07-13T16:35:10;25.70;1.00
5304;DHT22;2674;49.722;10.892;2023-07-13T16:37:37;25.80;1.00
5304;DHT22;2674;49.722;10.892;2023-07-13T16:40:22;25.80;1.00
5304;DHT22;2674;49.722;10.892;2023-07-13T16:42:54;25.80;1.00
5304;DHT22;2674;49.722;10.892;2023-07-13T16:45:28;25.60;1.00
5304;DHT22;2674;49.722;10.892;2023-07-13T16:48:00;25.60;1.00
5304;DHT22;2674;49.722;10.892;2023-07-13T16:50:32;25.70;1.00
5304;DHT22;2674;49.722;10.892;2023-07-13T16:53:03;25.90;1.00
5304;DHT22;2674;49.722;10.892;2023-07-13T16:55:32;25.80;1.00
5304;DHT22;2674;49.722;10.892;2023-07-13T16:57:59;25.70;1.00
5304;DHT22;2674;49.722;10.892;2023-07-13T17:00:31;25.50;1.00
5304;DHT22;2674;49.722;10.892;2023-07-13T17:03:05;25.50;1.00
5304;DHT22;2674;49.722;10.892;2023-07-13T17:05:44;25.60;1.00
5304;DHT22;2674;49.722;10.892;2023-07-13T17:08:22;25.80;1.00
5304;DHT22;2674;49.722;10.892;2023-07-13T17:10:56;26.00;1.00
5304;DHT22;2674;49.722;10.892;2023-07-13T17:13:23;26.10;1.00
5304;DHT22;2674;49.722;10.892;2023-07-13T17:15:52;26.30;1.00
5304;DHT22;2674;49.722;10.892;2023-07-13T17:18:23;26.20;1.00
5304;DHT22;2674;49.722;10.892;2023-07-13T17:20:50;26.20;1.00
5304;DHT22;2674;49.722;10.892;2023-07-13T17:23:18;26.10;1.00
5304;DHT22;2674;49.722;10.892;2023-07-13T17:25:46;26.00;1.00
5304;DHT22;2674;49.722;10.892;2023-07-13T17:28:12;26.00;1.00
5304;DHT22;2674;49.722;10.892;2023-07-13T17:30:41;26.00;1.00
5304;DHT22;2674;49.722;10.892;2023-07-13T17:35:52;25.80;1.00
5304;DHT22;2674;49.722;10.892;2023-07-13T17:38:18;25.80;1.00
5304;DHT22;2674;49.722;10.892;2023-07-13T17:40:45;25.60;1.00
5304;DHT22;2674;49.722;10.892;2023-07-13T17:43:11;25.60;1.00
5304;DHT22;2674;49.722;10.892;2023-07-13T17:45:38;25.60;1.00
5304;DHT22;2674;49.722;10.892;2023-07-13T17:48:08;25.60;1.00
5304;DHT22;2674;49.722;10.892;2023-07-13T17:50:36;25.70;1.00
5304;DHT22;2674;49.722;10.892;2023-07-13T17:53:13;25.60;1.00
5304;DHT22;2674;49.722;10.892;2023-07-13T17:55:39;25.60;1.00
5304;DHT22;2674;49.722;10.892;2023-07-13T17:58:05;25.60;1.00
5304;DHT22;2674;49.722;10.892;2023-07-13T18:00:34;25.50;1.00
5304;DHT22;2674;49.722;10.892;2023-07-13T18:03:19;25.50;1.00